createdAt,value
2022-09-21T00:00:41.683Z,100.00
2022-09-21T00:03:09.599Z,100.00
2022-09-21T00:05:38.867Z,100.00
2022-09-21T00:08:08.412Z,100.00
2022-09-21T00:10:36.111Z,100.00
2022-09-21T00:13:05.652Z,100.00
2022-09-21T00:15:33.602Z,100.00
2022-09-21T00:18:02.981Z,100.00
2022-09-21T00:20:30.671Z,100.00
2022-09-21T00:22:59.681Z,100.00
2022-09-21T00:25:27.367Z,100.00
2022-09-21T00:27:55.855Z,100.00
2022-09-21T00:30:23.578Z,100.00
2022-09-21T00:32:51.266Z,100.00
2022-09-21T00:35:18.935Z,100.00
2022-09-21T00:37:46.647Z,100.00
2022-09-21T00:40:15.719Z,100.00
2022-09-21T00:42:43.421Z,100.00
2022-09-21T00:45:21.075Z,100.00
2022-09-21T00:47:51.625Z,100.00
2022-09-21T00:50:23.349Z,100.00
2022-09-21T00:52:54.557Z,100.00
2022-09-21T00:55:31.075Z,100.00
2022-09-21T00:58:04.039Z,100.00
2022-09-21T01:00:31.852Z,100.00
2022-09-21T01:03:01.422Z,100.00
2022-09-21T01:05:29.596Z,100.00
2022-09-21T01:08:01.883Z,100.00
2022-09-21T01:10:40.374Z,100.00
2022-09-21T01:13:18.405Z,100.00
2022-09-21T01:15:56.772Z,100.00
2022-09-21T01:18:33.895Z,100.00
2022-09-21T01:21:18.422Z,100.00
2022-09-21T01:24:14.638Z,100.00
2022-09-21T01:27:08.187Z,100.00
2022-09-21T01:29:43.294Z,100.00
2022-09-21T01:32:15.611Z,100.00
2022-09-21T01:34:48.521Z,100.00
2022-09-21T01:37:21.099Z,100.00
2022-09-21T01:40:00.153Z,100.00
2022-09-21T01:42:29.522Z,100.00
2022-09-21T01:45:02.864Z,100.00
2022-09-21T01:47:31.710Z,100.00
2022-09-21T01:50:02.647Z,100.00
2022-09-21T01:52:37.228Z,100.00
2022-09-21T01:55:10.332Z,100.00
2022-09-21T01:57:44.225Z,100.00
2022-09-21T02:00:14.666Z,100.00
2022-09-21T02:02:47.738Z,100.00
2022-09-21T02:05:17.500Z,100.00
2022-09-21T02:07:45.881Z,100.00
2022-09-21T02:10:20.525Z,100.00
2022-09-21T02:12:49.393Z,100.00
2022-09-21T02:15:22.763Z,100.00
2022-09-21T02:17:59.687Z,100.00
2022-09-21T02:20:32.792Z,100.00
2022-09-21T02:23:07.578Z,100.00
2022-09-21T02:25:46.022Z,100.00
2022-09-21T02:28:21.360Z,100.00
2022-09-21T02:30:57.291Z,100.00
2022-09-21T02:33:32.299Z,100.00
2022-09-21T02:36:08.377Z,100.00
2022-09-21T02:38:40.520Z,100.00
2022-09-21T02:41:17.970Z,100.00
2022-09-21T02:43:52.132Z,100.00
2022-09-21T02:46:27.847Z,100.00
2022-09-21T02:49:00.730Z,100.00
2022-09-21T02:51:32.942Z,100.00
2022-09-21T02:54:03.101Z,100.00
2022-09-21T02:56:32.467Z,100.00
2022-09-21T02:59:04.319Z,100.00
2022-09-21T03:01:34.502Z,100.00
2022-09-21T03:04:02.869Z,100.00
2022-09-21T03:06:31.363Z,100.00
2022-09-21T03:08:59.065Z,100.00
2022-09-21T03:11:27.134Z,100.00
2022-09-21T03:13:54.882Z,100.00
2022-09-21T03:16:25.099Z,100.00
2022-09-21T03:18:54.148Z,100.00
2022-09-21T03:21:22.011Z,100.00
2022-09-21T03:23:49.759Z,100.00
2022-09-21T03:26:22.218Z,100.00
2022-09-21T03:28:49.961Z,100.00
2022-09-21T03:31:17.819Z,100.00
2022-09-21T03:33:45.524Z,100.00
2022-09-21T03:36:14.887Z,100.00
2022-09-21T03:38:42.660Z,100.00
2022-09-21T03:41:10.538Z,100.00
2022-09-21T03:43:38.205Z,100.00
2022-09-21T03:46:06.286Z,100.00
2022-09-21T03:48:34.055Z,100.00
2022-09-21T03:51:01.755Z,100.00
2022-09-21T03:53:30.799Z,100.00
2022-09-21T03:55:58.763Z,100.00
2022-09-21T03:58:26.411Z,100.00
2022-09-21T04:00:54.430Z,100.00
2022-09-21T04:03:22.244Z,100.00
2022-09-21T04:05:49.916Z,100.00
2022-09-21T04:08:17.615Z,100.00
2022-09-21T04:10:46.637Z,100.00
2022-09-21T04:13:14.367Z,100.00
2022-09-21T04:15:42.268Z,100.00
2022-09-21T04:18:09.936Z,100.00
2022-09-21T04:20:37.784Z,100.00
2022-09-21T04:23:05.533Z,100.00
2022-09-21T04:25:33.579Z,100.00
2022-09-21T04:28:03.079Z,100.00
2022-09-21T04:30:34.377Z,100.00
2022-09-21T04:33:05.393Z,100.00
2022-09-21T04:35:33.127Z,100.00
2022-09-21T04:38:00.835Z,100.00
2022-09-21T04:40:29.098Z,100.00
2022-09-21T04:42:56.858Z,100.00
2022-09-21T04:45:25.894Z,100.00
2022-09-21T04:47:53.550Z,100.00
2022-09-21T04:50:21.245Z,100.00
2022-09-21T04:52:48.918Z,100.00
2022-09-21T04:55:17.794Z,100.00
2022-09-21T04:57:45.530Z,100.00
2022-09-21T05:00:14.094Z,100.00
2022-09-21T05:02:43.091Z,100.00
2022-09-21T05:05:10.817Z,100.00
2022-09-21T05:07:38.453Z,100.00
2022-09-21T05:10:06.162Z,100.00
2022-09-21T05:12:38.597Z,100.00
2022-09-21T05:15:09.724Z,100.00
2022-09-21T05:17:37.395Z,100.00
2022-09-21T05:20:07.602Z,100.00
2022-09-21T05:22:35.511Z,100.00
2022-09-21T05:25:03.207Z,100.00
2022-09-21T05:27:30.877Z,100.00
2022-09-21T05:29:59.052Z,100.00
2022-09-21T05:32:34.057Z,100.00
2022-09-21T05:35:13.922Z,100.00
2022-09-21T05:37:54.863Z,100.00
2022-09-21T05:40:23.274Z,100.00
2022-09-21T05:42:51.611Z,100.00
2022-09-21T05:45:21.105Z,100.00
2022-09-21T05:48:07.889Z,100.00
2022-09-21T05:50:46.807Z,100.00
2022-09-21T05:53:24.150Z,100.00
2022-09-21T05:55:57.662Z,100.00
2022-09-21T05:58:33.281Z,100.00
2022-09-21T06:01:17.296Z,100.00
2022-09-21T06:03:47.531Z,100.00
2022-09-21T06:06:17.165Z,100.00
2022-09-21T06:08:44.822Z,100.00
2022-09-21T06:11:12.716Z,100.00
2022-09-21T06:13:40.979Z,100.00
2022-09-21T06:16:09.168Z,100.00
2022-09-21T06:18:38.778Z,100.00
2022-09-21T06:21:06.914Z,100.00
2022-09-21T06:23:36.696Z,100.00
2022-09-21T06:26:04.695Z,100.00
2022-09-21T06:28:32.356Z,100.00
2022-09-21T06:31:00.126Z,100.00
2022-09-21T06:33:27.889Z,100.00
2022-09-21T06:35:57.365Z,100.00
2022-09-21T06:38:25.887Z,100.00
2022-09-21T06:40:55.409Z,100.00
2022-09-21T06:43:23.379Z,100.00
2022-09-21T06:45:55.299Z,100.00
2022-09-21T06:48:24.749Z,100.00
2022-09-21T06:50:52.842Z,100.00
2022-09-21T06:53:20.595Z,100.00
2022-09-21T06:55:48.252Z,100.00
2022-09-21T06:58:17.380Z,100.00
2022-09-21T07:00:45.272Z,100.00
2022-09-21T07:03:13.297Z,100.00
2022-09-21T07:05:41.275Z,100.00
2022-09-21T07:10:04.973Z,100.00
2022-09-21T07:10:59.632Z,100.00
2022-09-21T07:13:28.763Z,100.00
2022-09-21T07:15:56.817Z,100.00
2022-09-21T07:18:25.327Z,100.00
2022-09-21T07:20:52.993Z,100.00
2022-09-21T07:23:22.301Z,100.00
2022-09-21T07:25:52.345Z,100.00
2022-09-21T07:28:20.654Z,98.00
2022-09-21T07:30:49.866Z,100.00
2022-09-21T07:33:17.554Z,100.00
2022-09-21T07:35:52.044Z,95.56
2022-09-21T07:38:20.167Z,85.51
2022-09-21T07:40:47.875Z,77.26
2022-09-21T07:43:15.924Z,75.79
2022-09-21T07:45:43.633Z,75.88
2022-09-21T07:48:13.261Z,80.55
2022-09-21T07:50:40.916Z,80.16
2022-09-21T07:53:08.580Z,85.80
2022-09-21T07:55:36.223Z,85.76
2022-09-21T07:58:21.167Z,82.41
2022-09-21T08:00:49.327Z,79.26
2022-09-21T08:03:18.436Z,81.71
2022-09-21T08:05:46.119Z,73.82
2022-09-21T08:08:13.822Z,69.92
2022-09-21T08:10:41.479Z,69.09
2022-09-21T08:13:09.278Z,75.10
2022-09-21T08:15:49.459Z,73.56
2022-09-21T08:18:19.252Z,79.41
2022-09-21T08:20:55.360Z,71.15
2022-09-21T08:23:23.070Z,72.03
2022-09-21T08:25:51.096Z,63.46
2022-09-21T08:28:18.956Z,68.57
2022-09-21T08:30:46.600Z,68.27
2022-09-21T08:33:14.584Z,63.32
2022-09-21T08:35:43.595Z,59.98
2022-09-21T08:38:11.532Z,61.71
2022-09-21T08:40:41.782Z,60.18
2022-09-21T08:43:14.154Z,63.79
2022-09-21T08:45:44.403Z,63.34
2022-09-21T08:48:18.434Z,62.12
2022-09-21T08:50:53.011Z,59.14
2022-09-21T08:53:26.954Z,60.40
2022-09-21T08:55:57.257Z,57.11
2022-09-21T08:58:26.686Z,60.07
2022-09-21T09:01:07.617Z,58.34
2022-09-21T09:04:00.506Z,56.91
2022-09-21T09:06:38.554Z,57.58
2022-09-21T09:09:22.849Z,64.38
2022-09-21T09:12:08.702Z,68.96
2022-09-21T09:14:59.967Z,60.66
2022-09-21T09:17:37.338Z,60.72
2022-09-21T09:20:11.454Z,58.19
2022-09-21T09:22:44.349Z,55.20
2022-09-21T09:25:20.113Z,56.39
2022-09-21T09:27:50.127Z,56.08
2022-09-21T09:30:20.784Z,54.47
2022-09-21T09:32:57.066Z,54.30
2022-09-21T09:35:29.451Z,57.69
2022-09-21T09:38:03.694Z,52.78
2022-09-21T09:40:49.654Z,54.16
2022-09-21T09:43:26.943Z,55.07
2022-09-21T09:46:05.252Z,53.66
2022-09-21T09:48:51.949Z,55.60
2022-09-21T09:51:21.958Z,55.63
2022-09-21T09:53:52.206Z,54.74
2022-09-21T09:56:20.060Z,52.87
2022-09-21T09:58:51.651Z,52.42
2022-09-21T10:01:42.704Z,52.24
2022-09-21T10:04:12.404Z,51.61
2022-09-21T10:06:45.358Z,51.08
2022-09-21T10:09:27.067Z,53.31
2022-09-21T10:11:57.595Z,54.72
2022-09-21T10:14:26.693Z,49.24
2022-09-21T10:16:56.637Z,51.37
2022-09-21T10:19:26.581Z,52.59
2022-09-21T10:21:58.379Z,49.84
2022-09-21T10:24:30.782Z,48.53
2022-09-21T10:27:07.356Z,47.21
2022-09-21T10:29:43.624Z,45.30
2022-09-21T10:32:26.460Z,43.51
2022-09-21T10:35:15.453Z,41.71
2022-09-21T10:37:44.422Z,41.12
2022-09-21T10:40:28.708Z,40.69
2022-09-21T10:42:59.012Z,41.63
2022-09-21T10:45:28.473Z,41.02
2022-09-21T10:47:58.392Z,41.03
2022-09-21T10:50:29.712Z,38.06
2022-09-21T10:53:01.286Z,37.28
2022-09-21T10:55:32.071Z,36.56
2022-09-21T10:58:00.915Z,37.94
2022-09-21T11:00:35.442Z,38.72
2022-09-21T11:03:25.860Z,37.45
2022-09-21T11:05:54.630Z,37.08
2022-09-21T11:08:29.739Z,34.47
2022-09-21T11:11:14.702Z,35.27
2022-09-21T11:13:50.669Z,35.00
2022-09-21T11:16:27.443Z,34.39
2022-09-21T11:19:02.289Z,34.07
2022-09-21T11:21:37.184Z,33.93
2022-09-21T11:24:13.304Z,30.52
2022-09-21T11:26:48.573Z,31.93
2022-09-21T11:29:23.219Z,32.43
2022-09-21T11:32:08.580Z,31.67
2022-09-21T11:34:55.890Z,31.30
2022-09-21T11:37:42.135Z,30.32
2022-09-21T11:40:33.343Z,30.37
2022-09-21T11:43:12.452Z,32.84
2022-09-21T11:45:57.460Z,33.83
2022-09-21T11:48:36.440Z,33.36
2022-09-21T11:51:18.841Z,33.46
2022-09-21T11:53:59.795Z,32.16
2022-09-21T11:56:41.007Z,31.90
2022-09-21T11:59:26.268Z,33.91
2022-09-21T12:02:22.379Z,34.83
2022-09-21T12:04:55.890Z,33.42
2022-09-21T12:07:42.450Z,34.74
2022-09-21T12:10:37.679Z,34.06
2022-09-21T12:13:10.153Z,37.36
2022-09-21T12:15:47.015Z,34.16
2022-09-21T12:18:26.196Z,36.27
2022-09-21T12:21:01.469Z,34.90
2022-09-21T12:23:38.029Z,33.60
2022-09-21T12:26:07.589Z,33.94
2022-09-21T12:28:40.661Z,33.99
2022-09-21T12:31:16.899Z,34.38
2022-09-21T12:33:50.521Z,34.33
2022-09-21T12:36:21.396Z,33.27
2022-09-21T12:38:56.143Z,33.52
2022-09-21T12:41:32.052Z,33.54
2022-09-21T12:44:06.773Z,34.57
2022-09-21T12:46:41.868Z,38.62
2022-09-21T12:49:15.223Z,40.97
2022-09-21T12:51:47.622Z,42.30
2022-09-21T12:54:25.204Z,42.96
2022-09-21T12:56:58.888Z,43.44
2022-09-21T12:59:35.484Z,42.96
2022-09-21T13:02:19.988Z,42.93
2022-09-21T13:04:59.445Z,42.11
2022-09-21T13:07:46.811Z,42.15
2022-09-21T13:10:22.106Z,43.98
2022-09-21T13:12:59.454Z,43.94
2022-09-21T13:15:30.514Z,45.34
2022-09-21T13:18:01.657Z,44.48
2022-09-21T13:20:35.878Z,43.66
2022-09-21T13:23:04.016Z,43.03
2022-09-21T13:25:37.479Z,43.57
2022-09-21T13:28:21.434Z,41.08
2022-09-21T13:30:50.498Z,40.17
2022-09-21T13:33:38.981Z,39.93
2022-09-21T13:36:31.228Z,39.09
2022-09-21T13:39:18.016Z,40.45
2022-09-21T13:42:02.223Z,40.26
2022-09-21T13:44:43.286Z,40.99
2022-09-21T13:47:14.486Z,44.61
2022-09-21T13:49:50.766Z,43.58
2022-09-21T13:52:33.355Z,46.39
2022-09-21T13:55:04.057Z,47.40
2022-09-21T13:57:37.891Z,47.58
2022-09-21T14:00:35.908Z,47.88
2022-09-21T14:03:07.289Z,47.95
2022-09-21T14:05:42.475Z,48.00
2022-09-21T14:08:23.056Z,48.84
2022-09-21T14:10:55.170Z,48.04
2022-09-21T14:13:29.243Z,48.33
2022-09-21T14:16:27.787Z,50.31
2022-09-21T14:18:56.274Z,49.21
2022-09-21T14:21:25.375Z,48.89
2022-09-21T14:24:22.135Z,48.61
2022-09-21T14:27:01.590Z,48.61
2022-09-21T14:29:39.479Z,48.66
2022-09-21T14:32:17.262Z,48.31
2022-09-21T14:34:49.568Z,48.31
2022-09-21T14:37:29.582Z,48.62
2022-09-21T14:39:59.164Z,48.11
2022-09-21T14:42:29.082Z,47.52
2022-09-21T14:45:02.110Z,46.27
2022-09-21T14:47:42.087Z,45.68
2022-09-21T14:50:31.758Z,46.44
2022-09-21T14:53:28.000Z,48.43
2022-09-21T14:56:23.055Z,47.73
2022-09-21T14:59:19.148Z,48.41
2022-09-21T15:01:58.260Z,48.14
2022-09-21T15:04:45.914Z,46.68
2022-09-21T15:07:44.681Z,47.39
2022-09-21T15:10:49.713Z,47.39
2022-09-21T15:13:51.628Z,48.17
2022-09-21T15:16:27.449Z,49.39
2022-09-21T15:19:11.833Z,49.50
2022-09-21T15:21:43.468Z,50.05
2022-09-21T15:24:34.072Z,51.38
2022-09-21T15:27:11.149Z,51.29
2022-09-21T15:29:39.995Z,48.55
2022-09-21T15:32:08.305Z,49.68
2022-09-21T15:34:36.229Z,48.07
2022-09-21T15:37:08.924Z,48.93
2022-09-21T15:39:36.937Z,49.49
2022-09-21T15:42:19.668Z,50.81
2022-09-21T15:44:49.044Z,49.89
2022-09-21T15:47:20.318Z,50.38
2022-09-21T15:49:48.295Z,49.02
2022-09-21T15:52:26.762Z,50.51
2022-09-21T15:54:58.513Z,50.57
2022-09-21T15:57:38.455Z,51.03
2022-09-21T16:00:18.837Z,51.45
2022-09-21T16:03:04.231Z,50.62
2022-09-21T16:05:43.509Z,51.60
2022-09-21T16:08:22.504Z,51.20
2022-09-21T16:10:50.983Z,51.71
2022-09-21T16:13:39.141Z,52.71
2022-09-21T16:16:09.072Z,53.73
2022-09-21T16:18:48.255Z,55.81
2022-09-21T16:21:21.934Z,56.31
2022-09-21T16:23:51.408Z,56.99
2022-09-21T16:26:22.681Z,55.64
2022-09-21T16:28:58.769Z,54.94
2022-09-21T16:31:32.643Z,54.73
2022-09-21T16:34:07.463Z,54.76
2022-09-21T16:36:38.208Z,55.56
2022-09-21T16:39:15.024Z,54.95
2022-09-21T16:41:50.301Z,56.05
2022-09-21T16:44:25.554Z,57.56
2022-09-21T16:46:56.334Z,58.79
2022-09-21T16:49:30.186Z,59.79
2022-09-21T16:51:59.167Z,58.05
2022-09-21T16:54:27.644Z,56.01
2022-09-21T16:56:57.374Z,56.66
2022-09-21T16:59:26.871Z,55.76
2022-09-21T17:01:56.915Z,57.40
2022-09-21T17:04:26.699Z,56.87
2022-09-21T17:06:55.350Z,56.84
2022-09-21T17:09:29.197Z,60.41
2022-09-21T17:12:00.223Z,62.63
2022-09-21T17:14:35.074Z,62.71
2022-09-21T17:17:05.721Z,61.15
2022-09-21T17:19:34.772Z,66.29
2022-09-21T17:22:03.827Z,67.03
2022-09-21T17:24:49.704Z,63.68
2022-09-21T17:27:19.185Z,64.32
2022-09-21T17:29:49.289Z,63.75
2022-09-21T17:32:20.380Z,63.90
2022-09-21T17:34:53.200Z,67.73
2022-09-21T17:37:21.797Z,67.93
2022-09-21T17:39:49.885Z,66.16
2022-09-21T17:42:21.103Z,66.71
2022-09-21T17:45:04.302Z,65.94
2022-09-21T17:47:33.764Z,65.96
2022-09-21T17:50:16.920Z,67.99
2022-09-21T17:53:02.721Z,67.32
2022-09-21T17:55:30.993Z,71.00
2022-09-21T17:58:16.510Z,72.16
2022-09-21T18:00:54.395Z,71.96
2022-09-21T18:03:24.403Z,81.85
2022-09-21T18:05:54.647Z,74.82
2022-09-21T18:08:22.809Z,74.27
2022-09-21T18:11:12.119Z,73.24
2022-09-21T18:13:52.243Z,78.53
2022-09-21T18:16:35.637Z,78.80
2022-09-21T18:19:13.897Z,73.26
2022-09-21T18:21:45.657Z,74.38
2022-09-21T18:24:20.583Z,72.56
2022-09-21T18:26:49.107Z,74.48
2022-09-21T18:29:45.688Z,75.62
2022-09-21T18:32:43.195Z,77.46
2022-09-21T18:35:24.758Z,79.27
2022-09-21T18:38:03.926Z,79.99
2022-09-21T18:40:38.704Z,81.43
2022-09-21T18:43:21.886Z,85.13
2022-09-21T18:45:56.357Z,92.82
2022-09-21T18:48:37.023Z,98.26
2022-09-21T18:51:11.610Z,94.77
2022-09-21T18:53:46.659Z,89.04
2022-09-21T18:56:15.242Z,91.51
2022-09-21T18:58:43.865Z,86.83
2022-09-21T19:01:13.275Z,92.14
2022-09-21T19:03:43.813Z,100.00
2022-09-21T19:06:23.232Z,88.16
2022-09-21T19:08:58.142Z,100.00
2022-09-21T19:11:32.503Z,100.00
2022-09-21T19:14:08.340Z,96.59
2022-09-21T19:16:43.601Z,99.18
2022-09-21T19:19:26.002Z,100.00
2022-09-21T19:21:57.348Z,100.00
2022-09-21T19:24:31.506Z,96.04
2022-09-21T19:27:14.005Z,100.00
2022-09-21T19:29:52.253Z,100.00
2022-09-21T19:32:25.830Z,99.59
2022-09-21T19:34:57.694Z,99.58
2022-09-21T19:37:25.473Z,99.87
2022-09-21T19:39:53.453Z,99.00
2022-09-21T19:42:30.069Z,100.00
2022-09-21T19:45:11.455Z,100.00
2022-09-21T19:47:47.753Z,100.00
2022-09-21T19:50:20.751Z,100.00
2022-09-21T19:52:49.123Z,100.00
2022-09-21T19:55:36.684Z,100.00
2022-09-21T19:58:23.436Z,100.00
2022-09-21T20:00:54.209Z,99.32
2022-09-21T20:03:31.612Z,100.00
2022-09-21T20:06:07.177Z,100.00
2022-09-21T20:08:42.282Z,100.00
2022-09-21T20:11:14.756Z,100.00
2022-09-21T20:13:59.811Z,100.00
2022-09-21T20:16:37.440Z,100.00
2022-09-21T20:19:14.691Z,100.00
2022-09-21T20:21:46.286Z,100.00
2022-09-21T20:24:23.697Z,100.00
2022-09-21T20:26:52.963Z,100.00
2022-09-21T20:29:21.775Z,100.00
2022-09-21T20:31:52.546Z,100.00
2022-09-21T20:34:20.569Z,100.00
2022-09-21T20:36:49.584Z,100.00
2022-09-21T20:39:17.271Z,100.00
2022-09-21T20:41:45.059Z,100.00
2022-09-21T20:44:14.230Z,100.00
2022-09-21T20:46:41.934Z,100.00
2022-09-21T20:49:09.692Z,100.00
2022-09-21T20:51:37.560Z,100.00
2022-09-21T20:54:07.115Z,100.00
2022-09-21T20:56:35.496Z,100.00
2022-09-21T20:59:03.117Z,100.00
2022-09-21T21:01:30.860Z,100.00
2022-09-21T21:04:02.852Z,100.00
2022-09-21T21:06:32.719Z,100.00
2022-09-21T21:09:00.976Z,100.00
2022-09-21T21:11:30.391Z,100.00
2022-09-21T21:13:59.117Z,100.00
2022-09-21T21:16:26.831Z,100.00
2022-09-21T21:18:54.526Z,100.00
2022-09-21T21:21:24.577Z,100.00
2022-09-21T21:24:10.372Z,100.00
2022-09-21T21:27:00.772Z,100.00
2022-09-21T21:29:27.468Z,100.00
2022-09-21T21:31:55.159Z,100.00
2022-09-21T21:34:23.105Z,100.00
2022-09-21T21:36:50.850Z,100.00
2022-09-21T21:39:18.540Z,100.00
2022-09-21T21:41:47.594Z,100.00
2022-09-21T21:44:15.696Z,100.00
2022-09-21T21:46:43.892Z,100.00
2022-09-21T21:49:11.515Z,100.00
2022-09-21T21:51:39.458Z,100.00
2022-09-21T21:54:07.325Z,100.00
2022-09-21T21:56:35.141Z,100.00
2022-09-21T21:59:04.290Z,100.00
2022-09-21T22:01:31.998Z,100.00
2022-09-21T22:04:02.092Z,100.00
2022-09-21T22:06:31.492Z,100.00
2022-09-21T22:09:00.210Z,100.00
2022-09-21T22:11:29.028Z,100.00
2022-09-21T22:13:58.405Z,100.00
2022-09-21T22:16:29.657Z,100.00
2022-09-21T22:18:58.070Z,100.00
2022-09-21T22:21:28.888Z,100.00
2022-09-21T22:24:02.204Z,100.00
2022-09-21T22:26:32.205Z,100.00
2022-09-21T22:29:02.691Z,100.00
2022-09-21T22:31:34.578Z,100.00
2022-09-21T22:34:02.971Z,100.00
2022-09-21T22:36:33.743Z,100.00
2022-09-21T22:39:01.935Z,100.00
2022-09-21T22:41:31.556Z,100.00
2022-09-21T22:44:00.176Z,100.00
2022-09-21T22:46:30.942Z,100.00
2022-09-21T22:49:00.589Z,100.00
2022-09-21T22:51:29.307Z,100.00
2022-09-21T22:53:57.769Z,100.00
2022-09-21T22:56:28.236Z,100.00
2022-09-21T22:58:57.912Z,100.00
2022-09-21T23:01:27.392Z,100.00
2022-09-21T23:03:58.030Z,100.00
2022-09-21T23:06:29.619Z,100.00
2022-09-21T23:08:59.097Z,100.00
2022-09-21T23:11:28.775Z,100.00
2022-09-21T23:13:57.388Z,100.00
2022-09-21T23:16:26.123Z,100.00
2022-09-21T23:18:54.071Z,100.00
2022-09-21T23:21:24.129Z,100.00
2022-09-21T23:23:56.089Z,100.00
2022-09-21T23:26:26.139Z,100.00
2022-09-21T23:28:56.946Z,100.00
2022-09-21T23:31:26.662Z,100.00
2022-09-21T23:33:56.642Z,100.00
2022-09-21T23:36:26.214Z,100.00
2022-09-21T23:38:55.454Z,100.00
2022-09-21T23:41:25.171Z,100.00
2022-09-21T23:43:53.371Z,100.00
2022-09-21T23:46:22.702Z,100.00
2022-09-21T23:48:51.564Z,100.00
2022-09-21T23:51:20.003Z,100.00
2022-09-21T23:53:47.847Z,100.00
2022-09-21T23:56:19.164Z,100.00
2022-09-21T23:58:47.487Z,100.00
